createdAt,value
2022-08-01T00:04:44.382Z,1.20
2022-08-01T00:09:45.287Z,1.20
2022-08-01T00:14:46.165Z,1.20
2022-08-01T00:19:47.119Z,1.30
2022-08-01T00:24:47.949Z,1.10
2022-08-01T00:30:09.734Z,1.40
2022-08-01T00:35:13.756Z,1.40
2022-08-01T00:40:14.885Z,1.10
2022-08-01T00:45:16.223Z,1.27
2022-08-01T00:50:17.350Z,1.20
2022-08-01T00:55:19.779Z,1.05
2022-08-01T01:00:27.167Z,1.20
2022-08-01T01:05:28.760Z,1.20
2022-08-01T01:11:17.834Z,1.45
2022-08-01T01:16:20.547Z,1.20
2022-08-01T01:22:27.569Z,0.90
2022-08-01T01:29:05.815Z,1.27
2022-08-01T01:34:09.957Z,0.95
2022-08-01T01:39:14.364Z,1.35
2022-08-01T01:44:17.473Z,1.33
2022-08-01T01:49:24.084Z,1.20
2022-08-01T01:54:30.450Z,1.12
2022-08-01T01:59:34.723Z,1.37
2022-08-01T02:04:38.341Z,1.50
2022-08-01T02:09:42.417Z,1.27
2022-08-01T02:14:46.044Z,1.20
2022-08-01T02:19:47.180Z,1.20
2022-08-01T02:25:21.158Z,1.20
2022-08-01T02:30:24.632Z,1.15
2022-08-01T02:35:28.779Z,1.10
2022-08-01T02:40:33.042Z,1.40
2022-08-01T02:45:37.641Z,1.10
2022-08-01T02:50:42.247Z,1.25
2022-08-01T02:55:45.372Z,1.25
2022-08-01T03:00:47.186Z,1.08
2022-08-01T03:05:49.641Z,1.23
2022-08-01T03:10:52.720Z,1.35
2022-08-01T03:15:56.048Z,1.25
2022-08-01T03:20:59.673Z,1.30
2022-08-01T03:26:02.289Z,1.30
2022-08-01T03:31:03.783Z,1.77
2022-08-01T03:36:09.279Z,1.35
2022-08-01T03:41:16.085Z,1.30
2022-08-01T03:46:21.253Z,1.40
2022-08-01T03:51:23.523Z,1.60
2022-08-01T03:56:25.557Z,1.50
2022-08-01T04:01:28.245Z,1.40
2022-08-01T04:11:30.772Z,1.40
2022-08-01T04:16:31.597Z,1.50
2022-08-01T04:21:33.095Z,1.60
2022-08-01T04:26:36.477Z,1.10
2022-08-01T04:31:42.161Z,1.50
2022-08-01T04:36:44.578Z,1.20
2022-08-01T04:41:47.425Z,1.42
2022-08-01T04:46:50.137Z,1.30
2022-08-01T04:52:00.257Z,1.30
2022-08-01T04:57:01.555Z,1.30
2022-08-01T05:02:02.468Z,1.30
2022-08-01T05:07:04.543Z,1.40
2022-08-01T05:12:07.148Z,1.42
2022-08-01T05:17:09.248Z,1.17
2022-08-01T05:22:10.438Z,1.20
2022-08-01T05:27:13.538Z,1.40
2022-08-01T05:32:16.558Z,1.20
2022-08-01T05:37:17.541Z,1.62
2022-08-01T05:42:18.601Z,1.50
2022-08-01T05:47:19.771Z,1.15
2022-08-01T05:52:20.630Z,1.10
2022-08-01T05:57:21.669Z,1.70
2022-08-01T06:02:23.969Z,1.45
2022-08-01T06:07:24.894Z,1.70
2022-08-01T06:12:25.868Z,1.40
2022-08-01T06:17:26.759Z,1.50
2022-08-01T06:22:27.694Z,1.30
2022-08-01T06:27:29.195Z,1.35
2022-08-01T06:32:31.338Z,1.65
2022-08-01T06:37:33.055Z,1.97
2022-08-01T06:42:38.011Z,1.42
2022-08-01T06:47:40.213Z,1.87
2022-08-01T06:52:41.686Z,1.98
2022-08-01T06:58:00.890Z,1.40
2022-08-01T07:03:02.133Z,1.87
2022-08-01T07:08:03.516Z,1.80
2022-08-01T07:13:04.416Z,2.00
2022-08-01T07:18:05.323Z,2.40
2022-08-01T07:23:06.225Z,2.60
2022-08-01T07:33:10.236Z,3.00
2022-08-01T07:38:12.868Z,3.05
2022-08-01T07:43:14.056Z,3.10
2022-08-01T07:48:15.020Z,3.47
2022-08-01T07:53:16.028Z,4.70
2022-08-01T07:58:17.446Z,3.78
2022-08-01T08:03:18.282Z,3.45
2022-08-01T08:08:19.512Z,3.28
2022-08-01T08:13:22.852Z,3.12
2022-08-01T08:18:23.679Z,2.50
2022-08-01T08:23:44.095Z,2.70
2022-08-01T08:28:45.295Z,3.03
2022-08-01T08:33:46.169Z,2.90
2022-08-01T08:38:47.333Z,2.90
2022-08-01T08:43:48.962Z,3.20
2022-08-01T08:48:52.092Z,3.50
2022-08-01T08:53:55.860Z,3.80
2022-08-01T08:58:57.701Z,2.80
2022-08-01T09:03:58.687Z,2.40
2022-08-01T09:09:00.363Z,2.53
2022-08-01T09:14:12.548Z,3.37
2022-08-01T09:19:40.322Z,3.47
2022-08-01T09:24:42.217Z,2.80
2022-08-01T09:29:44.845Z,3.05
2022-08-01T09:34:50.876Z,3.80
2022-08-01T09:39:56.451Z,3.10
2022-08-01T09:44:57.378Z,3.00
2022-08-01T09:49:59.971Z,3.12
2022-08-01T09:55:06.383Z,2.87
2022-08-01T10:00:29.542Z,2.37
2022-08-01T10:05:37.454Z,2.20
2022-08-01T10:10:38.540Z,2.23
2022-08-01T10:15:40.384Z,2.10
2022-08-01T10:20:43.022Z,2.25
2022-08-01T10:25:46.915Z,2.05
2022-08-01T10:30:49.404Z,1.67
2022-08-01T10:35:51.569Z,2.17
2022-08-01T10:40:54.591Z,1.90
2022-08-01T10:45:56.481Z,1.98
2022-08-01T10:51:04.251Z,1.70
2022-08-01T10:56:07.783Z,1.80
2022-08-01T11:01:45.023Z,1.50
2022-08-01T11:07:10.182Z,1.60
2022-08-01T11:12:23.541Z,1.50
2022-08-01T11:17:37.884Z,1.27
2022-08-01T11:29:32.198Z,1.40
2022-08-01T11:34:55.787Z,1.70
2022-08-01T11:40:16.601Z,1.10
2022-08-01T11:45:18.887Z,1.40
2022-08-01T11:50:34.773Z,1.47
2022-08-01T11:55:35.896Z,1.10
2022-08-01T12:00:37.509Z,1.20
2022-08-01T12:05:44.994Z,1.37
2022-08-01T12:10:50.344Z,1.20
2022-08-01T12:15:56.465Z,1.35
2022-08-01T12:21:05.133Z,1.00
2022-08-01T12:26:06.111Z,1.40
2022-08-01T12:31:07.024Z,1.30
2022-08-01T12:36:08.641Z,1.67
2022-08-01T12:41:15.591Z,1.50
2022-08-01T12:46:17.618Z,1.60
2022-08-01T12:51:18.682Z,1.60
2022-08-01T12:56:32.427Z,1.58
2022-08-01T13:01:33.330Z,1.20
2022-08-01T13:06:35.689Z,1.25
2022-08-01T13:11:36.655Z,1.27
2022-08-01T13:16:56.806Z,1.23
2022-08-01T13:21:58.632Z,1.20
2022-08-01T13:27:03.354Z,1.23
2022-08-01T13:32:28.561Z,1.12
2022-08-01T13:37:31.314Z,2.10
2022-08-01T13:42:33.552Z,2.92
2022-08-01T13:47:34.648Z,2.35
2022-08-01T13:52:35.593Z,2.90
2022-08-01T13:57:37.415Z,2.90
2022-08-01T14:02:39.149Z,2.60
2022-08-01T14:07:41.416Z,2.90
2022-08-01T14:12:42.499Z,2.40
2022-08-01T14:17:47.972Z,2.95
2022-08-01T14:22:49.422Z,2.65
2022-08-01T14:27:50.297Z,2.78
2022-08-01T14:32:51.191Z,2.60
2022-08-01T14:37:52.540Z,2.85
2022-08-01T14:42:58.821Z,2.20
2022-08-01T14:47:59.788Z,2.35
2022-08-01T14:53:01.115Z,2.25
2022-08-01T14:58:02.027Z,2.17
2022-08-01T15:03:03.543Z,2.08
2022-08-01T15:08:06.266Z,2.30
2022-08-01T15:13:08.021Z,1.67
2022-08-01T15:18:09.153Z,2.20
2022-08-01T15:23:10.096Z,2.03
2022-08-01T15:28:12.020Z,1.83
2022-08-01T15:33:12.867Z,1.90
2022-08-01T15:38:13.755Z,1.52
2022-08-01T15:43:15.873Z,1.90
2022-08-01T15:48:17.531Z,1.83
2022-08-01T15:53:18.603Z,1.90
2022-08-01T15:58:19.717Z,1.87
2022-08-01T16:03:21.134Z,2.17
2022-08-01T16:08:22.257Z,3.17
2022-08-01T16:13:23.227Z,2.42
2022-08-01T16:18:24.335Z,3.10
2022-08-01T16:23:25.216Z,2.80
2022-08-01T16:28:26.365Z,3.45
2022-08-01T16:33:45.118Z,3.62
2022-08-01T16:38:55.365Z,3.72
2022-08-01T16:43:56.228Z,3.35
2022-08-01T16:48:57.394Z,3.53
2022-08-01T16:53:58.263Z,3.42
2022-08-01T16:58:59.243Z,2.97
2022-08-01T17:04:01.660Z,2.80
2022-08-01T17:09:03.874Z,2.30
2022-08-01T17:14:05.001Z,2.35
2022-08-01T17:19:06.132Z,2.30
2022-08-01T17:24:07.403Z,2.20
2022-08-01T17:29:08.460Z,2.92
2022-08-01T17:34:09.304Z,2.80
2022-08-01T17:39:11.645Z,2.70
2022-08-01T17:44:13.597Z,3.30
2022-08-01T17:49:14.598Z,3.10
2022-08-01T17:54:15.498Z,2.55
2022-08-01T17:59:17.223Z,3.08
2022-08-01T18:04:18.040Z,3.10
2022-08-01T18:09:19.497Z,3.28
2022-08-01T18:14:21.999Z,2.50
2022-08-01T18:19:41.910Z,2.72
2022-08-01T18:24:47.650Z,2.78
2022-08-01T18:29:48.861Z,2.80
2022-08-01T18:34:50.101Z,2.40
2022-08-01T18:39:50.977Z,2.50
2022-08-01T18:44:52.965Z,2.97
2022-08-01T18:49:53.904Z,2.60
2022-08-01T18:54:56.698Z,3.30
2022-08-01T18:59:57.961Z,2.72
2022-08-01T19:04:58.944Z,3.37
2022-08-01T19:10:00.033Z,2.90
2022-08-01T19:15:04.783Z,3.60
2022-08-01T19:20:07.369Z,3.58
2022-08-01T19:25:08.797Z,4.40
2022-08-01T19:30:10.685Z,3.17
2022-08-01T19:35:15.866Z,2.73
2022-08-01T19:40:27.019Z,3.50
2022-08-01T19:45:29.236Z,3.15
2022-08-01T19:50:31.991Z,2.97
2022-08-01T19:55:39.439Z,3.20
2022-08-01T20:00:42.086Z,3.05
2022-08-01T20:05:43.177Z,3.37
2022-08-01T20:10:46.152Z,2.50
2022-08-01T20:15:48.001Z,3.40
2022-08-01T20:20:51.070Z,2.77
2022-08-01T20:25:58.260Z,3.00
2022-08-01T20:31:05.151Z,2.90
2022-08-01T20:36:11.917Z,3.10
2022-08-01T20:41:13.391Z,2.97
2022-08-01T20:46:15.268Z,2.67
2022-08-01T20:51:16.698Z,2.97
2022-08-01T20:56:49.663Z,2.90
2022-08-01T21:05:30.088Z,2.90
2022-08-01T21:10:31.960Z,2.78
2022-08-01T21:15:39.216Z,2.83
2022-08-01T21:21:14.137Z,3.17
2022-08-01T21:26:18.538Z,2.87
2022-08-01T21:31:20.957Z,2.90
2022-08-01T21:36:26.014Z,3.00
2022-08-01T21:42:03.340Z,3.03
2022-08-01T21:47:11.840Z,3.05
2022-08-01T21:52:17.279Z,3.03
2022-08-01T21:57:55.414Z,3.22
2022-08-01T22:03:35.384Z,3.33
2022-08-01T22:08:43.830Z,3.03
2022-08-01T22:13:45.261Z,3.37
2022-08-01T22:18:46.384Z,3.45
2022-08-01T22:23:49.778Z,2.80
2022-08-01T22:28:51.664Z,3.12
2022-08-01T22:33:53.643Z,2.75
2022-08-01T22:38:54.464Z,3.13
2022-08-01T22:44:02.011Z,3.83
2022-08-01T22:49:21.531Z,3.50
2022-08-01T22:54:31.053Z,3.10
2022-08-01T22:59:48.510Z,3.28
2022-08-01T23:04:54.352Z,3.03
2022-08-01T23:09:57.005Z,3.15
2022-08-01T23:14:59.541Z,2.45
2022-08-01T23:20:03.286Z,3.00
2022-08-01T23:25:07.359Z,2.90
2022-08-01T23:30:09.326Z,2.87
2022-08-01T23:35:10.191Z,3.28
2022-08-01T23:40:11.637Z,2.90
2022-08-01T23:45:12.694Z,3.30
2022-08-01T23:50:13.643Z,3.12
2022-08-01T23:55:15.513Z,2.65
